createdAt,value
2023-05-18T00:00:02.574Z,31.67
2023-05-18T00:02:31.804Z,31.55
2023-05-18T00:05:02.415Z,31.70
2023-05-18T00:07:34.286Z,31.51
2023-05-18T00:10:01.940Z,31.66
2023-05-18T00:12:29.035Z,31.64
2023-05-18T00:14:56.043Z,31.61
2023-05-18T00:17:23.629Z,32.12
2023-05-18T00:19:51.921Z,32.34
2023-05-18T00:22:19.443Z,32.51
2023-05-18T00:24:46.818Z,31.99
2023-05-18T00:27:13.755Z,31.84
2023-05-18T00:29:40.581Z,31.86
2023-05-18T00:32:08.024Z,31.73
2023-05-18T00:34:37.321Z,32.15
2023-05-18T00:37:04.472Z,32.16
2023-05-18T00:39:31.443Z,32.19
2023-05-18T00:41:58.269Z,32.19
2023-05-18T00:44:25.108Z,32.24
2023-05-18T00:46:52.493Z,32.25
2023-05-18T00:49:19.322Z,32.71
2023-05-18T00:51:46.127Z,32.92
2023-05-18T00:54:12.951Z,32.42
2023-05-18T00:56:42.197Z,32.43
2023-05-18T00:59:12.521Z,32.71
2023-05-18T01:01:43.916Z,32.82
2023-05-18T01:04:14.421Z,32.51
2023-05-18T01:06:43.235Z,32.27
2023-05-18T01:09:11.895Z,32.07
2023-05-18T01:12:20.527Z,32.23
2023-05-18T01:15:01.912Z,32.35
2023-05-18T01:17:51.380Z,32.22
2023-05-18T01:20:49.533Z,31.94
2023-05-18T01:23:55.038Z,31.90
2023-05-18T01:26:30.173Z,31.64
2023-05-18T01:28:59.488Z,31.56
2023-05-18T01:31:27.016Z,31.69
2023-05-18T01:33:53.930Z,32.14
2023-05-18T01:36:20.865Z,32.17
2023-05-18T01:38:47.641Z,32.32
2023-05-18T01:41:22.746Z,32.47
2023-05-18T01:44:07.402Z,32.91
2023-05-18T01:46:43.545Z,33.02
2023-05-18T01:49:25.437Z,33.04
2023-05-18T01:51:52.467Z,33.08
2023-05-18T01:54:19.483Z,33.22
2023-05-18T01:56:46.284Z,33.96
2023-05-18T01:59:13.088Z,33.71
2023-05-18T02:01:40.184Z,33.35
2023-05-18T02:04:10.679Z,32.96
2023-05-18T02:06:38.058Z,33.22
2023-05-18T02:09:05.804Z,33.72
2023-05-18T02:11:33.541Z,33.70
2023-05-18T02:14:01.210Z,33.91
2023-05-18T02:16:28.331Z,33.90
2023-05-18T02:18:56.303Z,33.81
2023-05-18T02:21:23.307Z,33.94
2023-05-18T02:23:50.552Z,34.53
2023-05-18T02:26:17.912Z,34.67
2023-05-18T02:28:52.752Z,34.79
2023-05-18T02:31:19.694Z,34.91
2023-05-18T02:33:46.599Z,34.95
2023-05-18T02:36:14.250Z,34.64
2023-05-18T02:38:42.812Z,34.67
2023-05-18T02:41:10.704Z,34.79
2023-05-18T02:43:37.948Z,34.63
2023-05-18T02:46:04.975Z,34.53
2023-05-18T02:48:32.634Z,34.38
2023-05-18T02:50:59.410Z,35.01
2023-05-18T02:53:27.021Z,34.72
2023-05-18T02:56:03.415Z,34.41
2023-05-18T02:58:39.120Z,34.17
2023-05-18T03:01:22.250Z,34.14
2023-05-18T03:03:53.170Z,33.92
2023-05-18T03:06:26.801Z,33.71
2023-05-18T03:08:54.582Z,34.32
2023-05-18T03:11:23.845Z,34.45
2023-05-18T03:13:51.380Z,33.88
2023-05-18T03:16:18.998Z,34.22
2023-05-18T03:18:47.147Z,33.64
2023-05-18T03:21:15.420Z,33.14
2023-05-18T03:23:42.480Z,32.82
2023-05-18T03:26:11.525Z,32.96
2023-05-18T03:28:39.152Z,32.66
2023-05-18T03:31:06.246Z,32.22
2023-05-18T03:33:34.206Z,31.31
2023-05-18T03:36:03.357Z,29.72
2023-05-18T03:38:30.514Z,29.28
2023-05-18T03:41:02.255Z,28.56
2023-05-18T03:43:33.942Z,28.08
2023-05-18T03:46:00.861Z,27.29
2023-05-18T03:48:27.989Z,26.69
2023-05-18T03:50:54.997Z,25.93
2023-05-18T03:53:22.239Z,25.75
2023-05-18T03:55:51.666Z,25.77
2023-05-18T03:58:22.551Z,25.50
2023-05-18T04:00:51.068Z,24.61
2023-05-18T04:03:18.822Z,24.63
2023-05-18T04:05:46.119Z,24.16
2023-05-18T04:08:15.947Z,24.23
2023-05-18T04:10:43.549Z,23.90
2023-05-18T04:13:10.674Z,23.61
2023-05-18T04:15:38.052Z,23.16
2023-05-18T04:18:05.022Z,22.82
2023-05-18T04:20:31.893Z,22.54
2023-05-18T04:22:58.766Z,21.58
2023-05-18T04:25:28.958Z,21.56
2023-05-18T04:27:56.195Z,21.46
2023-05-18T04:30:26.829Z,21.41
2023-05-18T04:32:54.865Z,21.43
2023-05-18T04:35:22.077Z,21.91
2023-05-18T04:37:48.847Z,21.86
2023-05-18T04:40:17.759Z,21.25
2023-05-18T04:42:47.958Z,20.89
2023-05-18T04:45:19.659Z,20.57
2023-05-18T04:47:48.213Z,20.73
2023-05-18T04:50:18.166Z,20.47
2023-05-18T04:52:49.095Z,20.58
2023-05-18T04:55:23.250Z,20.18
2023-05-18T04:57:50.891Z,19.86
2023-05-18T05:00:18.624Z,19.63
2023-05-18T05:02:45.648Z,19.73
2023-05-18T05:05:13.146Z,19.53
2023-05-18T05:07:39.955Z,19.37
2023-05-18T05:10:09.703Z,19.05
2023-05-18T05:12:39.615Z,18.79
2023-05-18T05:15:07.666Z,18.64
2023-05-18T05:17:34.525Z,18.45
2023-05-18T05:20:01.321Z,18.12
2023-05-18T05:22:28.420Z,18.31
2023-05-18T05:24:55.678Z,18.62
2023-05-18T05:28:06.168Z,20.61
2023-05-18T05:30:33.640Z,18.93
2023-05-18T05:33:01.092Z,18.31
2023-05-18T05:35:30.439Z,18.31
2023-05-18T05:37:59.026Z,18.37
2023-05-18T05:40:25.875Z,18.80
2023-05-18T05:42:53.324Z,18.90
2023-05-18T05:45:20.132Z,18.80
2023-05-18T05:47:54.365Z,18.68
2023-05-18T05:50:22.546Z,18.66
2023-05-18T05:52:50.922Z,18.57
2023-05-18T05:55:18.587Z,18.54
2023-05-18T05:57:45.450Z,18.17
2023-05-18T06:00:13.173Z,18.18
2023-05-18T06:02:50.316Z,18.06
2023-05-18T06:05:24.600Z,17.66
2023-05-18T06:07:52.090Z,17.73
2023-05-18T06:10:19.109Z,17.42
2023-05-18T06:12:45.932Z,17.16
2023-05-18T06:15:12.790Z,17.29
2023-05-18T06:17:40.434Z,17.50
2023-05-18T06:20:08.533Z,17.62
2023-05-18T06:22:36.526Z,17.14
2023-05-18T06:25:18.854Z,16.90
2023-05-18T06:28:09.061Z,16.40
2023-05-18T06:30:43.006Z,16.35
2023-05-18T06:33:21.601Z,16.48
2023-05-18T06:35:48.370Z,15.83
2023-05-18T06:38:15.254Z,15.32
2023-05-18T06:40:44.287Z,15.53
2023-05-18T06:43:13.252Z,15.35
2023-05-18T06:45:56.603Z,14.98
2023-05-18T06:48:31.524Z,14.85
2023-05-18T06:50:58.519Z,14.59
2023-05-18T06:53:26.421Z,14.50
2023-05-18T06:55:53.399Z,14.71
2023-05-18T06:58:20.515Z,14.70
2023-05-18T07:00:48.500Z,14.52
2023-05-18T07:03:15.404Z,14.53
2023-05-18T07:05:42.285Z,14.51
2023-05-18T07:08:13.935Z,14.36
2023-05-18T07:10:41.224Z,14.41
2023-05-18T07:13:08.057Z,14.11
2023-05-18T07:15:35.134Z,14.56
2023-05-18T07:18:03.764Z,14.54
2023-05-18T07:20:30.897Z,14.49
2023-05-18T07:22:58.059Z,14.67
2023-05-18T07:25:24.965Z,14.16
2023-05-18T07:27:54.760Z,14.09
2023-05-18T07:30:22.406Z,14.04
2023-05-18T07:32:49.272Z,13.99
2023-05-18T07:35:17.099Z,13.63
2023-05-18T07:37:43.926Z,13.37
2023-05-18T07:40:11.553Z,12.92
2023-05-18T07:42:41.528Z,12.95
2023-05-18T07:45:09.107Z,13.04
2023-05-18T07:47:36.165Z,12.94
2023-05-18T07:50:02.980Z,13.03
2023-05-18T07:52:30.102Z,13.44
2023-05-18T07:55:00.190Z,13.07
2023-05-18T07:57:27.290Z,12.80
2023-05-18T07:59:54.104Z,12.81
2023-05-18T08:02:21.006Z,13.04
2023-05-18T08:04:48.121Z,12.89
2023-05-18T08:07:15.033Z,12.45
2023-05-18T08:09:41.919Z,12.37
2023-05-18T08:12:08.779Z,12.30
2023-05-18T08:14:35.904Z,12.64
2023-05-18T08:17:06.976Z,12.74
2023-05-18T08:19:33.859Z,12.75
2023-05-18T08:22:00.642Z,12.86
2023-05-18T08:24:27.532Z,13.28
2023-05-18T08:26:54.396Z,13.25
2023-05-18T08:29:21.391Z,13.31
2023-05-18T08:31:49.703Z,12.83
2023-05-18T08:34:16.881Z,12.56
2023-05-18T08:36:45.737Z,12.84
2023-05-18T08:39:13.040Z,12.56
2023-05-18T08:41:58.742Z,12.32
2023-05-18T08:44:38.792Z,12.31
2023-05-18T08:47:11.385Z,12.47
2023-05-18T08:49:38.264Z,12.86
2023-05-18T08:52:05.503Z,13.00
2023-05-18T08:54:32.278Z,12.80
2023-05-18T08:56:59.085Z,13.00
2023-05-18T08:59:27.501Z,13.43
2023-05-18T09:01:55.124Z,13.54
2023-05-18T09:04:22.558Z,13.77
2023-05-18T09:06:53.206Z,13.14
2023-05-18T09:09:20.171Z,12.21
2023-05-18T09:11:47.035Z,12.12
2023-05-18T09:14:14.119Z,12.25
2023-05-18T09:16:41.064Z,12.33
2023-05-18T09:19:10.102Z,12.14
2023-05-18T09:21:36.971Z,12.15
2023-05-18T09:24:03.946Z,11.92
2023-05-18T09:26:31.126Z,11.68
2023-05-18T09:28:59.766Z,11.64
2023-05-18T09:31:28.617Z,11.80
2023-05-18T09:33:55.650Z,11.27
2023-05-18T09:36:26.356Z,11.22
2023-05-18T09:38:54.755Z,11.20
2023-05-18T09:41:21.961Z,11.06
2023-05-18T09:43:50.110Z,10.99
2023-05-18T09:46:18.150Z,11.24
2023-05-18T09:48:52.566Z,11.40
2023-05-18T09:51:19.908Z,11.21
2023-05-18T09:53:53.836Z,11.42
2023-05-18T09:56:21.724Z,11.41
2023-05-18T09:58:48.545Z,11.42
2023-05-18T10:01:15.706Z,11.15
2023-05-18T10:03:45.271Z,11.08
2023-05-18T10:06:14.870Z,10.79
2023-05-18T10:08:41.651Z,10.49
2023-05-18T10:11:08.547Z,10.68
2023-05-18T10:13:35.492Z,10.68
2023-05-18T10:16:04.139Z,10.96
2023-05-18T10:18:37.677Z,11.10
2023-05-18T10:21:05.947Z,11.09
2023-05-18T10:23:36.444Z,11.26
2023-05-18T10:26:05.290Z,11.22
2023-05-18T10:28:36.301Z,10.64
2023-05-18T10:31:04.456Z,10.65
2023-05-18T10:33:31.648Z,10.15
2023-05-18T10:35:58.937Z,10.07
2023-05-18T10:38:27.417Z,10.13
2023-05-18T10:40:55.926Z,10.01
2023-05-18T10:43:32.593Z,10.42
2023-05-18T10:46:01.039Z,10.99
2023-05-18T10:48:29.634Z,11.28
2023-05-18T10:50:57.784Z,11.25
2023-05-18T10:53:36.567Z,11.21
2023-05-18T10:56:03.805Z,10.99
2023-05-18T10:58:30.984Z,11.01
2023-05-18T11:01:02.006Z,10.59
2023-05-18T11:03:28.936Z,10.77
2023-05-18T11:06:12.251Z,10.92
2023-05-18T11:08:49.978Z,11.14
2023-05-18T11:11:19.220Z,10.75
2023-05-18T11:13:50.367Z,10.39
2023-05-18T11:16:18.431Z,10.53
2023-05-18T11:18:49.914Z,10.99
2023-05-18T11:21:20.416Z,10.89
2023-05-18T11:24:25.129Z,11.24
2023-05-18T11:26:56.332Z,11.66
2023-05-18T11:29:29.776Z,11.63
2023-05-18T11:31:56.961Z,11.51
2023-05-18T11:34:46.677Z,11.30
2023-05-18T11:37:14.813Z,11.53
2023-05-18T11:39:51.693Z,11.64
2023-05-18T11:42:25.158Z,11.61
2023-05-18T11:44:57.846Z,11.60
2023-05-18T11:47:30.303Z,11.27
2023-05-18T11:49:57.240Z,11.19
2023-05-18T11:52:25.036Z,11.17
2023-05-18T11:55:01.465Z,11.34
2023-05-18T11:57:34.301Z,11.10
2023-05-18T12:00:02.685Z,11.05
2023-05-18T12:02:39.636Z,10.89
2023-05-18T12:05:08.349Z,10.85
2023-05-18T12:07:36.414Z,10.55
2023-05-18T12:10:12.112Z,10.90
2023-05-18T12:12:39.979Z,10.71
2023-05-18T12:15:11.539Z,10.27
2023-05-18T12:17:42.432Z,10.00
2023-05-18T12:20:11.702Z,10.13
2023-05-18T12:22:42.861Z,10.81
2023-05-18T12:25:09.913Z,10.82
2023-05-18T12:27:43.949Z,10.29
2023-05-18T12:30:21.394Z,11.01
2023-05-18T12:32:52.741Z,10.92
2023-05-18T12:35:26.357Z,10.71
2023-05-18T12:37:55.629Z,10.62
2023-05-18T12:40:22.572Z,10.34
2023-05-18T12:42:53.742Z,10.35
2023-05-18T12:45:25.635Z,10.68
2023-05-18T12:47:54.730Z,10.67
2023-05-18T12:50:22.580Z,10.90
2023-05-18T12:52:49.528Z,11.03
2023-05-18T12:55:23.267Z,11.06
2023-05-18T12:58:18.114Z,11.00
2023-05-18T13:00:46.116Z,10.96
2023-05-18T13:03:16.329Z,10.62
2023-05-18T13:05:45.698Z,10.64
2023-05-18T13:08:18.132Z,10.63
2023-05-18T13:10:55.213Z,10.82
2023-05-18T13:13:28.686Z,10.80
2023-05-18T13:15:55.546Z,10.74
2023-05-18T13:18:22.486Z,11.06
2023-05-18T13:20:51.828Z,10.90
2023-05-18T13:23:21.216Z,10.76
2023-05-18T13:25:48.228Z,10.92
2023-05-18T13:28:16.234Z,11.01
2023-05-18T13:30:43.290Z,11.10
2023-05-18T13:33:10.884Z,11.32
2023-05-18T13:35:38.718Z,11.47
2023-05-18T13:38:05.487Z,11.71
2023-05-18T13:40:32.306Z,11.78
2023-05-18T13:42:59.069Z,11.57
2023-05-18T13:45:26.264Z,11.63
2023-05-18T13:47:56.946Z,11.70
2023-05-18T13:50:23.901Z,11.92
2023-05-18T13:52:50.875Z,11.72
2023-05-18T13:55:17.685Z,11.89
2023-05-18T13:57:47.628Z,12.04
2023-05-18T14:00:16.038Z,11.95
2023-05-18T14:02:43.802Z,11.77
2023-05-18T14:05:10.896Z,11.79
2023-05-18T14:07:38.270Z,11.58
2023-05-18T14:10:09.537Z,11.63
2023-05-18T14:12:36.388Z,11.36
2023-05-18T14:15:03.738Z,11.20
2023-05-18T14:17:30.859Z,11.37
2023-05-18T14:19:57.787Z,11.45
2023-05-18T14:22:26.252Z,11.69
2023-05-18T14:24:53.553Z,11.43
2023-05-18T14:27:20.660Z,11.63
2023-05-18T14:29:48.172Z,11.65
2023-05-18T14:32:15.195Z,11.47
2023-05-18T14:34:42.044Z,11.79
2023-05-18T14:37:10.019Z,11.88
2023-05-18T14:39:37.952Z,11.90
2023-05-18T14:42:06.277Z,11.68
2023-05-18T14:44:33.308Z,11.83
2023-05-18T14:47:00.166Z,12.07
2023-05-18T14:49:27.207Z,12.21
2023-05-18T14:51:54.139Z,12.12
2023-05-18T14:54:22.684Z,12.25
2023-05-18T14:56:50.063Z,12.18
2023-05-18T14:59:16.856Z,12.20
2023-05-18T15:01:44.936Z,12.33
2023-05-18T15:04:12.254Z,12.44
2023-05-18T15:06:40.641Z,12.29
2023-05-18T15:09:08.445Z,12.46
2023-05-18T15:11:35.286Z,12.45
2023-05-18T15:14:02.018Z,12.67
2023-05-18T15:16:28.906Z,12.50
2023-05-18T15:18:56.436Z,12.48
2023-05-18T15:21:23.279Z,12.37
2023-05-18T15:23:50.055Z,12.41
2023-05-18T15:26:16.817Z,12.55
2023-05-18T15:28:45.123Z,12.85
2023-05-18T15:31:12.164Z,12.86
2023-05-18T15:33:42.535Z,12.82
2023-05-18T15:36:09.826Z,12.87
2023-05-18T15:38:36.615Z,12.98
2023-05-18T15:41:03.510Z,13.20
2023-05-18T15:43:31.084Z,13.04
2023-05-18T15:45:58.568Z,12.84
2023-05-18T15:48:25.817Z,12.89
2023-05-18T15:50:52.777Z,12.94
2023-05-18T15:53:19.569Z,12.61
2023-05-18T15:55:46.633Z,12.53
2023-05-18T15:58:13.591Z,12.56
2023-05-18T16:00:40.544Z,12.73
2023-05-18T16:03:07.485Z,12.83
2023-05-18T16:05:34.336Z,13.05
2023-05-18T16:08:01.460Z,13.37
2023-05-18T16:10:28.485Z,13.48
2023-05-18T16:12:55.479Z,13.63
2023-05-18T16:15:24.714Z,13.87
2023-05-18T16:17:51.623Z,13.73
2023-05-18T16:20:18.664Z,13.72
2023-05-18T16:22:46.923Z,13.69
2023-05-18T16:25:16.963Z,13.87
2023-05-18T16:27:43.861Z,14.03
2023-05-18T16:30:10.951Z,14.18
2023-05-18T16:32:37.854Z,14.15
2023-05-18T16:35:05.235Z,14.05
2023-05-18T16:37:34.634Z,14.15
2023-05-18T16:40:01.441Z,13.86
2023-05-18T16:42:28.276Z,13.96
2023-05-18T16:44:55.700Z,13.96
2023-05-18T16:47:23.045Z,13.86
2023-05-18T16:49:49.849Z,13.94
2023-05-18T16:52:18.401Z,13.98
2023-05-18T16:54:45.677Z,14.32
2023-05-18T16:57:13.340Z,14.62
2023-05-18T16:59:40.150Z,14.67
2023-05-18T17:02:09.051Z,15.09
2023-05-18T17:04:35.952Z,15.41
2023-05-18T17:07:02.850Z,16.05
2023-05-18T17:09:29.730Z,16.42
2023-05-18T17:11:56.502Z,16.80
2023-05-18T17:14:23.336Z,16.83
2023-05-18T17:16:50.108Z,17.48
2023-05-18T17:19:16.962Z,17.92
2023-05-18T17:21:43.966Z,18.13
2023-05-18T17:24:12.941Z,18.23
2023-05-18T17:26:39.738Z,18.48
2023-05-18T17:29:06.936Z,18.82
2023-05-18T17:31:33.918Z,19.09
2023-05-18T17:34:01.997Z,19.34
2023-05-18T17:36:28.944Z,19.59
2023-05-18T17:38:56.596Z,20.56
2023-05-18T17:41:26.061Z,21.60
2023-05-18T17:45:20.416Z,25.39
2023-05-18T17:47:47.278Z,23.79
2023-05-18T17:50:14.734Z,23.00
2023-05-18T17:52:41.538Z,22.92
2023-05-18T17:55:08.889Z,22.51
2023-05-18T17:57:35.914Z,22.25
2023-05-18T18:00:02.874Z,22.17
2023-05-18T18:02:38.257Z,22.22
2023-05-18T18:05:05.420Z,22.96
2023-05-18T18:07:32.172Z,23.52
2023-05-18T18:09:59.225Z,23.90
2023-05-18T18:12:26.031Z,24.06
2023-05-18T18:14:53.121Z,24.40
2023-05-18T18:17:19.965Z,24.59
2023-05-18T18:19:46.807Z,24.49
2023-05-18T18:22:13.726Z,24.30
2023-05-18T18:24:40.544Z,24.50
2023-05-18T18:27:07.380Z,25.04
2023-05-18T18:29:34.145Z,25.57
2023-05-18T18:32:01.243Z,25.43
2023-05-18T18:34:28.094Z,25.08
2023-05-18T18:36:54.984Z,25.01
2023-05-18T18:39:22.043Z,25.04
2023-05-18T18:41:48.887Z,25.22
2023-05-18T18:44:15.842Z,25.02
2023-05-18T18:46:43.381Z,24.99
2023-05-18T18:49:10.227Z,25.34
2023-05-18T18:51:38.064Z,25.47
2023-05-18T18:54:05.025Z,25.51
2023-05-18T18:56:32.117Z,25.71
2023-05-18T18:58:58.930Z,25.40
2023-05-18T19:01:25.765Z,25.27
2023-05-18T19:03:54.185Z,25.08
2023-05-18T19:06:22.788Z,25.68
2023-05-18T19:08:52.191Z,25.75
2023-05-18T19:11:22.143Z,25.21
2023-05-18T19:13:49.208Z,25.26
2023-05-18T19:16:17.708Z,25.13
2023-05-18T19:18:44.895Z,25.22
2023-05-18T19:21:11.712Z,25.69
2023-05-18T19:23:39.031Z,25.47
2023-05-18T19:26:05.874Z,25.94
2023-05-18T19:28:33.994Z,26.16
2023-05-18T19:31:02.767Z,25.90
2023-05-18T19:33:30.832Z,25.85
2023-05-18T19:35:58.188Z,26.08
2023-05-18T19:38:25.695Z,25.93
2023-05-18T19:40:52.549Z,25.93
2023-05-18T19:43:20.998Z,26.32
2023-05-18T19:45:49.939Z,26.81
2023-05-18T19:48:18.007Z,26.92
2023-05-18T19:50:44.762Z,26.82
2023-05-18T19:53:11.751Z,27.35
2023-05-18T19:55:39.010Z,27.03
2023-05-18T19:58:06.572Z,27.30
2023-05-18T20:00:33.932Z,27.49
2023-05-18T20:03:03.257Z,27.56
2023-05-18T20:05:30.328Z,27.77
2023-05-18T20:07:58.280Z,27.80
2023-05-18T20:10:25.459Z,27.92
2023-05-18T20:12:52.292Z,27.81
2023-05-18T20:15:19.105Z,27.16
2023-05-18T20:17:46.215Z,27.43
2023-05-18T20:20:13.134Z,27.44
2023-05-18T20:22:40.303Z,27.47
2023-05-18T20:25:07.898Z,27.67
2023-05-18T20:27:34.642Z,27.33
2023-05-18T20:30:01.419Z,27.39
2023-05-18T20:32:29.085Z,27.10
2023-05-18T20:34:56.054Z,27.04
2023-05-18T20:37:24.185Z,27.06
2023-05-18T20:39:51.656Z,27.18
2023-05-18T20:42:21.894Z,27.23
2023-05-18T20:44:51.293Z,26.99
2023-05-18T20:47:21.488Z,26.71
2023-05-18T20:49:48.734Z,26.55
2023-05-18T20:52:15.600Z,26.28
2023-05-18T20:54:43.474Z,25.99
2023-05-18T20:57:10.698Z,25.84
2023-05-18T20:59:37.724Z,25.78
2023-05-18T21:02:05.072Z,25.54
2023-05-18T21:04:32.018Z,25.91
2023-05-18T21:06:58.890Z,25.97
2023-05-18T21:09:25.702Z,25.98
2023-05-18T21:11:52.591Z,25.98
2023-05-18T21:14:19.413Z,25.64
2023-05-18T21:16:46.944Z,25.59
2023-05-18T21:19:13.899Z,25.15
2023-05-18T21:21:40.736Z,25.63
2023-05-18T21:24:08.634Z,25.51
2023-05-18T21:26:35.482Z,25.41
2023-05-18T21:29:02.350Z,25.57
2023-05-18T21:31:31.964Z,25.42
2023-05-18T21:33:58.823Z,25.38
2023-05-18T21:36:33.893Z,25.15
2023-05-18T21:39:01.931Z,24.99
2023-05-18T21:41:29.265Z,24.94
2023-05-18T21:43:57.779Z,25.24
2023-05-18T21:46:24.725Z,25.27
2023-05-18T21:48:51.760Z,24.99
2023-05-18T21:51:18.691Z,24.52
2023-05-18T21:53:46.015Z,24.40
2023-05-18T21:56:12.792Z,24.44
2023-05-18T21:58:39.584Z,24.62
2023-05-18T22:01:06.765Z,24.53
2023-05-18T22:03:33.620Z,24.53
2023-05-18T22:06:00.516Z,24.67
2023-05-18T22:08:30.138Z,24.60
2023-05-18T22:10:56.961Z,24.80
2023-05-18T22:13:23.832Z,24.67
2023-05-18T22:15:50.895Z,24.71
2023-05-18T22:18:19.257Z,24.77
2023-05-18T22:20:46.071Z,24.93
2023-05-18T22:23:12.928Z,24.94
2023-05-18T22:25:39.689Z,25.04
2023-05-18T22:28:06.609Z,25.20
2023-05-18T22:30:33.894Z,25.21
2023-05-18T22:33:01.091Z,25.39
2023-05-18T22:35:27.934Z,25.84
2023-05-18T22:37:54.899Z,25.76
2023-05-18T22:40:21.962Z,25.69
2023-05-18T22:42:49.361Z,25.61
2023-05-18T22:45:16.495Z,25.37
2023-05-18T22:47:45.372Z,25.27
2023-05-18T22:50:12.320Z,24.99
2023-05-18T22:52:40.604Z,25.27
2023-05-18T22:55:16.266Z,25.07
2023-05-18T22:57:43.675Z,25.49
2023-05-18T23:00:12.530Z,25.35
2023-05-18T23:02:40.056Z,25.50
2023-05-18T23:05:08.195Z,25.71
2023-05-18T23:07:38.380Z,25.87
2023-05-18T23:10:11.217Z,25.78
2023-05-18T23:12:38.321Z,26.13
2023-05-18T23:15:06.078Z,26.48
2023-05-18T23:17:33.065Z,26.24
2023-05-18T23:20:02.823Z,26.09
2023-05-18T23:22:29.568Z,26.33
2023-05-18T23:24:56.418Z,26.51
2023-05-18T23:27:23.194Z,26.45
2023-05-18T23:29:49.979Z,26.51
2023-05-18T23:32:16.795Z,26.47
2023-05-18T23:34:44.754Z,26.27
2023-05-18T23:37:11.615Z,26.38
2023-05-18T23:39:40.911Z,26.25
2023-05-18T23:42:08.701Z,25.95
2023-05-18T23:44:35.961Z,26.20
2023-05-18T23:47:04.725Z,25.61
2023-05-18T23:49:32.313Z,25.42
2023-05-18T23:52:01.376Z,25.56
2023-05-18T23:54:28.827Z,25.70
2023-05-18T23:56:56.173Z,26.07
2023-05-18T23:59:23.544Z,26.04
